Scio, Oregon
Current Conditions -  °F | °C
As of 8:25 AM on Friday 24 Oct 2014 (Local Time) from KSLE Reporting Station
Haze Haze  
Wind Chill: 50°   Ceiling: 500
Heat Index: 50°   Visibility: 4mi
Dew Point: 48°   Wind: 5mph
Humidity: 93%   Direction: 330°NNW
Pressure: 29.97"   Gusts: NA
Location:  44.7°N, 122.85°W
Report Text: KSLE 241525Z 33004KT 4SM BR OVC005 10/09 A2997 RMK AO2 T01000089
Loading
Personal Weather Stations






























Interactive Weather Map
Tropical Storm Tracking
New forecast layout! Learn more

10-Day Weather Forecast

Advertisements
Track Severe Weather on mobile